createdAt,value
2019-05-22T00:00:11.971Z,0.00
2019-05-22T00:01:11.950Z,0.00
2019-05-22T00:02:11.940Z,0.00
2019-05-22T00:03:11.945Z,0.00
2019-05-22T00:04:11.923Z,0.00
2019-05-22T00:05:11.944Z,0.00
2019-05-22T00:06:11.919Z,0.00
2019-05-22T00:07:11.884Z,0.00
2019-05-22T00:08:11.886Z,0.00
2019-05-22T00:09:11.873Z,0.00
2019-05-22T00:10:11.853Z,0.00
2019-05-22T00:11:11.857Z,0.00
2019-05-22T00:12:11.834Z,0.00
2019-05-22T00:13:11.828Z,0.00
2019-05-22T00:14:11.816Z,0.00
2019-05-22T00:15:11.809Z,0.00
2019-05-22T00:16:11.798Z,0.00
2019-05-22T00:17:11.779Z,0.00
2019-05-22T00:18:11.770Z,0.00
2019-05-22T00:19:11.758Z,0.00
2019-05-22T00:20:11.747Z,0.00
2019-05-22T00:21:11.754Z,0.00
2019-05-22T00:22:11.722Z,0.00
2019-05-22T00:23:11.759Z,0.00
2019-05-22T00:24:11.702Z,0.00
2019-05-22T00:25:11.693Z,0.00
2019-05-22T00:26:11.692Z,0.00
2019-05-22T00:27:11.670Z,0.00
2019-05-22T00:28:11.660Z,0.00
2019-05-22T00:29:11.649Z,0.00
2019-05-22T00:30:11.647Z,0.00
2019-05-22T00:31:11.641Z,0.00
2019-05-22T00:32:11.617Z,0.00
2019-05-22T00:33:11.605Z,0.00
2019-05-22T00:34:11.598Z,0.00
2019-05-22T00:35:11.584Z,0.00
2019-05-22T00:36:11.593Z,0.00
2019-05-22T00:37:11.575Z,0.00
2019-05-22T00:38:11.569Z,0.00
2019-05-22T00:39:11.547Z,0.00
2019-05-22T00:40:11.894Z,0.00
2019-05-22T00:41:11.567Z,0.00
2019-05-22T00:42:11.515Z,0.00
2019-05-22T00:43:14.193Z,0.00
2019-05-22T00:44:11.517Z,0.00
2019-05-22T00:45:11.477Z,0.00
2019-05-22T00:46:11.476Z,0.00
2019-05-22T00:47:11.455Z,0.00
2019-05-22T00:48:11.460Z,0.00
2019-05-22T00:49:11.445Z,0.00
2019-05-22T00:50:11.423Z,0.00
2019-05-22T00:51:11.526Z,0.00
2019-05-22T00:52:11.400Z,0.00
2019-05-22T00:53:11.389Z,0.00
2019-05-22T00:54:11.386Z,0.00
2019-05-22T00:55:11.370Z,0.00
2019-05-22T00:56:11.395Z,0.00
2019-05-22T00:57:11.346Z,0.00
2019-05-22T00:58:11.336Z,0.00
2019-05-22T00:59:11.327Z,0.00
2019-05-22T01:00:11.321Z,0.00
2019-05-22T01:01:11.306Z,0.00
2019-05-22T01:02:11.307Z,0.00
2019-05-22T01:03:11.288Z,0.00
2019-05-22T01:04:11.275Z,0.00
2019-05-22T01:05:11.262Z,0.00
2019-05-22T01:06:11.250Z,0.00
2019-05-22T01:07:11.258Z,0.00
2019-05-22T01:08:11.228Z,0.00
2019-05-22T01:09:11.217Z,0.00
2019-05-22T01:10:11.580Z,0.00
2019-05-22T01:11:11.195Z,0.00
2019-05-22T01:12:11.329Z,0.00
2019-05-22T01:13:11.219Z,0.00
2019-05-22T01:14:11.163Z,0.00
2019-05-22T01:15:11.235Z,0.00
2019-05-22T01:16:11.145Z,0.00
2019-05-22T01:17:11.156Z,0.00
2019-05-22T01:18:11.277Z,0.00
2019-05-22T01:19:11.156Z,0.00
2019-05-22T01:20:11.203Z,0.00
2019-05-22T01:21:11.092Z,0.00
2019-05-22T01:22:11.089Z,0.00
2019-05-22T01:23:11.067Z,0.00
2019-05-22T01:24:11.060Z,0.00
2019-05-22T01:25:11.049Z,0.00
2019-05-22T01:26:11.035Z,0.00
2019-05-22T01:27:11.034Z,0.00
2019-05-22T01:28:11.017Z,0.00
2019-05-22T01:29:11.005Z,0.00
2019-05-22T01:30:10.992Z,0.00
2019-05-22T01:31:10.994Z,0.00
2019-05-22T01:32:10.991Z,0.00
2019-05-22T01:33:10.959Z,0.00
2019-05-22T01:34:10.948Z,0.00
2019-05-22T01:35:10.939Z,0.00
2019-05-22T01:36:10.929Z,0.00
2019-05-22T01:37:10.926Z,0.00
2019-05-22T01:38:10.919Z,0.00
2019-05-22T01:39:10.894Z,0.00
2019-05-22T01:40:10.889Z,0.00
2019-05-22T01:41:10.875Z,0.00
2019-05-22T01:42:10.869Z,0.00
2019-05-22T01:43:10.871Z,0.00
2019-05-22T01:44:10.844Z,0.00
2019-05-22T01:45:10.828Z,0.00
2019-05-22T01:46:10.820Z,0.00
2019-05-22T01:47:10.808Z,0.00
2019-05-22T01:48:10.810Z,0.00
2019-05-22T01:49:10.786Z,0.00
2019-05-22T01:50:10.774Z,0.00
2019-05-22T01:51:10.784Z,0.00
2019-05-22T01:52:10.756Z,0.00
2019-05-22T01:53:10.766Z,0.00
2019-05-22T01:54:10.733Z,0.00
2019-05-22T01:55:10.728Z,0.00
2019-05-22T01:56:10.731Z,0.00
2019-05-22T01:57:10.699Z,0.00
2019-05-22T01:58:10.697Z,0.00
2019-05-22T01:59:10.690Z,0.00
2019-05-22T02:00:10.669Z,0.00
2019-05-22T02:01:10.655Z,0.00
2019-05-22T02:02:10.651Z,0.00
2019-05-22T02:03:10.645Z,0.00
2019-05-22T02:04:10.624Z,0.00
2019-05-22T02:05:10.614Z,0.00
2019-05-22T02:06:10.601Z,0.00
2019-05-22T02:07:10.591Z,0.00
2019-05-22T02:08:10.606Z,0.00
2019-05-22T02:09:10.574Z,0.00
2019-05-22T02:10:10.558Z,0.00
2019-05-22T02:11:10.553Z,0.00
2019-05-22T02:12:10.562Z,0.00
2019-05-22T02:13:10.530Z,0.00
2019-05-22T02:14:10.527Z,0.00
2019-05-22T02:15:10.507Z,0.00
2019-05-22T02:16:10.495Z,0.00
2019-05-22T02:17:10.486Z,0.00
2019-05-22T02:18:10.481Z,0.00
2019-05-22T02:19:10.471Z,0.00
2019-05-22T02:20:10.451Z,0.00
2019-05-22T02:21:10.440Z,0.00
2019-05-22T02:22:10.440Z,0.00
2019-05-22T02:23:10.422Z,0.00
2019-05-22T02:24:10.439Z,0.00
2019-05-22T02:25:10.398Z,0.00
2019-05-22T02:26:10.386Z,0.00
2019-05-22T02:27:10.378Z,0.00
2019-05-22T02:28:10.367Z,0.00
2019-05-22T02:29:10.374Z,0.00
2019-05-22T02:30:10.354Z,0.00
2019-05-22T02:31:10.337Z,0.00
2019-05-22T02:32:10.321Z,0.00
2019-05-22T02:33:10.326Z,0.00
2019-05-22T02:34:10.310Z,0.00
2019-05-22T02:35:10.302Z,0.00
2019-05-22T02:36:10.281Z,0.00
2019-05-22T02:37:10.275Z,0.00
2019-05-22T02:38:10.267Z,0.00
2019-05-22T02:39:10.261Z,0.00
2019-05-22T02:40:10.239Z,0.00
2019-05-22T02:41:14.135Z,0.00
2019-05-22T02:42:10.217Z,0.00
2019-05-22T02:43:10.204Z,0.00
2019-05-22T02:44:10.216Z,0.00
2019-05-22T02:45:10.183Z,0.00
2019-05-22T02:46:10.180Z,0.00
2019-05-22T02:47:19.183Z,0.00
2019-05-22T02:48:11.161Z,0.00
2019-05-22T02:49:10.150Z,0.00
2019-05-22T02:50:10.130Z,0.00
2019-05-22T02:51:10.164Z,0.00
2019-05-22T02:52:10.106Z,0.00
2019-05-22T02:53:10.096Z,0.00
2019-05-22T02:54:10.087Z,0.00
2019-05-22T02:55:10.098Z,4.00
2019-05-22T02:56:10.069Z,4.00
2019-05-22T02:57:10.054Z,4.00
2019-05-22T02:58:10.043Z,4.00
2019-05-22T02:59:10.047Z,4.00
2019-05-22T03:00:10.032Z,4.00
2019-05-22T03:01:10.009Z,4.00
2019-05-22T03:02:09.998Z,4.00
2019-05-22T03:03:09.989Z,4.00
2019-05-22T03:04:09.980Z,4.00
2019-05-22T03:05:09.979Z,0.00
2019-05-22T03:06:09.960Z,0.00
2019-05-22T03:07:09.946Z,0.00
2019-05-22T03:08:09.934Z,0.00
2019-05-22T03:09:09.932Z,4.00
2019-05-22T03:10:09.927Z,4.00
2019-05-22T03:11:09.904Z,4.00
2019-05-22T03:12:09.892Z,4.00
2019-05-22T03:13:09.881Z,4.00
2019-05-22T03:14:09.870Z,4.00
2019-05-22T03:15:09.868Z,4.00
2019-05-22T03:16:09.847Z,8.00
2019-05-22T03:17:09.861Z,4.00
2019-05-22T03:18:09.828Z,8.00
2019-05-22T03:19:09.820Z,8.00
2019-05-22T03:20:09.823Z,8.00
2019-05-22T03:21:09.796Z,4.00
2019-05-22T03:22:09.784Z,8.00
2019-05-22T03:23:09.822Z,8.00
2019-05-22T03:24:09.761Z,8.00
2019-05-22T03:25:09.765Z,12.00
2019-05-22T03:26:09.772Z,8.00
2019-05-22T03:27:09.730Z,8.00
2019-05-22T03:28:09.745Z,8.00
2019-05-22T03:29:09.712Z,12.00
2019-05-22T03:30:09.731Z,16.00
2019-05-22T03:31:09.686Z,12.00
2019-05-22T03:32:09.696Z,8.00
2019-05-22T03:33:09.674Z,12.00
2019-05-22T03:34:09.663Z,16.00
2019-05-22T03:35:09.646Z,16.00
2019-05-22T03:36:09.654Z,20.00
2019-05-22T03:37:09.621Z,20.00
2019-05-22T03:38:09.612Z,12.00
2019-05-22T03:39:09.618Z,16.00
2019-05-22T03:40:09.594Z,16.00
2019-05-22T03:41:09.590Z,16.00
2019-05-22T03:42:09.569Z,16.00
2019-05-22T03:43:09.567Z,20.00
2019-05-22T03:44:09.554Z,20.00
2019-05-22T03:45:09.543Z,24.00
2019-05-22T03:46:09.535Z,28.00
2019-05-22T03:47:09.514Z,24.00
2019-05-22T03:48:09.504Z,20.00
2019-05-22T03:49:26.165Z,24.00
2019-05-22T03:50:10.491Z,24.00
2019-05-22T03:51:09.509Z,28.00
2019-05-22T03:52:09.460Z,32.00
2019-05-22T03:53:09.449Z,36.00
2019-05-22T03:54:09.448Z,44.00
2019-05-22T03:55:09.426Z,40.00
2019-05-22T03:56:09.420Z,40.00
2019-05-22T03:57:09.425Z,36.00
2019-05-22T03:58:09.397Z,40.00
2019-05-22T03:59:09.384Z,36.00
2019-05-22T04:00:09.371Z,36.00
2019-05-22T04:01:09.365Z,32.00
2019-05-22T04:02:09.364Z,28.00
2019-05-22T04:03:09.343Z,32.00
2019-05-22T04:04:09.330Z,36.00
2019-05-22T04:05:09.321Z,40.00
2019-05-22T04:06:09.317Z,36.00
2019-05-22T04:07:09.307Z,40.00
2019-05-22T04:08:09.286Z,44.00
2019-05-22T04:09:09.276Z,40.00
2019-05-22T04:10:09.271Z,36.00
2019-05-22T04:11:09.255Z,32.00
2019-05-22T04:12:09.256Z,40.00
2019-05-22T04:13:09.248Z,40.00
2019-05-22T04:14:09.223Z,40.00
2019-05-22T04:15:09.214Z,44.00
2019-05-22T04:16:09.198Z,44.00
2019-05-22T04:17:09.223Z,56.00
2019-05-22T04:18:09.184Z,60.00
2019-05-22T04:19:09.172Z,56.00
2019-05-22T04:20:09.165Z,56.00
2019-05-22T04:21:09.155Z,64.00
2019-05-22T04:22:09.159Z,64.00
2019-05-22T04:23:09.133Z,56.00
2019-05-22T04:24:09.123Z,52.00
2019-05-22T04:25:09.103Z,60.00
2019-05-22T04:26:09.093Z,60.00
2019-05-22T04:27:09.092Z,68.00
2019-05-22T04:28:09.072Z,76.00
2019-05-22T04:29:09.071Z,68.00
2019-05-22T04:30:09.064Z,68.00
2019-05-22T04:31:09.044Z,64.00
2019-05-22T04:32:09.038Z,64.00
2019-05-22T04:33:09.026Z,60.00
2019-05-22T04:34:09.008Z,72.00
2019-05-22T04:35:08.996Z,76.00
2019-05-22T04:36:10.337Z,72.00
2019-05-22T04:37:08.991Z,68.00
2019-05-22T04:38:08.966Z,76.00
2019-05-22T04:39:08.956Z,68.00
2019-05-22T04:40:08.945Z,60.00
2019-05-22T04:41:08.929Z,56.00
2019-05-22T04:42:08.945Z,56.00
2019-05-22T04:43:08.909Z,52.00
2019-05-22T04:44:08.898Z,48.00
2019-05-22T04:45:08.887Z,52.00
2019-05-22T04:46:08.885Z,56.00
2019-05-22T04:47:08.867Z,52.00
2019-05-22T04:48:08.884Z,60.00
2019-05-22T04:49:08.845Z,56.00
2019-05-22T04:50:08.871Z,60.00
2019-05-22T04:51:08.821Z,56.00
2019-05-22T04:52:08.816Z,64.00
2019-05-22T04:53:08.815Z,56.00
2019-05-22T04:54:08.792Z,56.00
2019-05-22T04:55:08.782Z,64.00
2019-05-22T04:56:08.771Z,60.00
2019-05-22T04:57:08.760Z,76.00
2019-05-22T04:58:08.759Z,92.00
2019-05-22T04:59:08.736Z,88.00
2019-05-22T05:00:08.733Z,100.00
2019-05-22T05:01:08.719Z,76.00
2019-05-22T05:02:08.723Z,84.00
2019-05-22T05:03:08.708Z,88.00
2019-05-22T05:04:08.703Z,100.00
2019-05-22T05:05:08.672Z,96.00
2019-05-22T05:06:08.660Z,88.00
2019-05-22T05:07:08.650Z,84.00
2019-05-22T05:08:08.647Z,96.00
2019-05-22T05:09:08.627Z,92.00
2019-05-22T05:10:08.618Z,88.00
2019-05-22T05:11:08.610Z,84.00
2019-05-22T05:12:08.622Z,92.00
2019-05-22T05:13:08.596Z,92.00
2019-05-22T05:14:08.576Z,92.00
2019-05-22T05:15:08.563Z,100.00
2019-05-22T05:16:08.553Z,116.00
2019-05-22T05:17:08.542Z,100.00
2019-05-22T05:18:08.539Z,140.00
2019-05-22T05:19:08.519Z,120.00
2019-05-22T05:20:21.549Z,124.00
2019-05-22T05:21:09.495Z,116.00
2019-05-22T05:22:08.485Z,136.00
2019-05-22T05:23:08.487Z,136.00
2019-05-22T05:24:08.465Z,136.00
2019-05-22T05:25:08.454Z,144.00
2019-05-22T05:26:08.442Z,152.00
2019-05-22T05:27:08.432Z,148.00
2019-05-22T05:28:08.445Z,164.00
2019-05-22T05:29:08.411Z,148.00
2019-05-22T05:30:08.399Z,148.00
2019-05-22T05:31:08.391Z,144.00
2019-05-22T05:32:08.378Z,160.00
2019-05-22T05:33:08.379Z,148.00
2019-05-22T05:34:08.356Z,136.00
2019-05-22T05:35:08.365Z,144.00
2019-05-22T05:36:08.334Z,168.00
2019-05-22T05:37:08.328Z,160.00
2019-05-22T05:38:08.324Z,152.00
2019-05-22T05:39:08.302Z,144.00
2019-05-22T05:40:08.297Z,156.00
2019-05-22T05:41:08.292Z,152.00
2019-05-22T05:42:08.269Z,152.00
2019-05-22T05:43:08.269Z,148.00
2019-05-22T05:44:08.248Z,164.00
2019-05-22T05:45:08.241Z,196.00
2019-05-22T05:46:08.234Z,180.00
2019-05-22T05:47:08.218Z,172.00
2019-05-22T05:48:08.251Z,212.00
2019-05-22T05:49:08.197Z,184.00
2019-05-22T05:50:08.193Z,188.00
2019-05-22T05:51:08.183Z,192.00
2019-05-22T05:52:08.164Z,208.00
2019-05-22T05:53:08.152Z,216.00
2019-05-22T05:54:08.159Z,236.00
2019-05-22T05:55:08.180Z,268.00
2019-05-22T05:56:08.127Z,300.00
2019-05-22T05:57:08.115Z,288.00
2019-05-22T05:58:08.126Z,308.00
2019-05-22T05:59:08.100Z,288.00
2019-05-22T06:00:08.079Z,248.00
2019-05-22T06:01:08.069Z,220.00
2019-05-22T06:02:08.102Z,280.00
2019-05-22T06:03:08.053Z,264.00
2019-05-22T06:04:08.054Z,292.00
2019-05-22T06:05:08.027Z,296.00
2019-05-22T06:06:08.016Z,320.00
2019-05-22T06:07:08.012Z,348.00
2019-05-22T06:08:07.991Z,340.00
2019-05-22T06:09:07.998Z,380.00
2019-05-22T06:10:07.969Z,312.00
2019-05-22T06:11:07.965Z,332.00
2019-05-22T06:12:07.950Z,392.00
2019-05-22T06:13:07.941Z,436.00
2019-05-22T06:14:07.954Z,348.00
2019-05-22T06:15:07.937Z,460.00
2019-05-22T06:16:07.909Z,376.00
2019-05-22T06:17:07.902Z,292.00
2019-05-22T06:18:07.925Z,300.00
2019-05-22T06:19:07.891Z,328.00
2019-05-22T06:20:07.867Z,280.00
2019-05-22T06:21:07.865Z,260.00
2019-05-22T06:22:07.845Z,308.00
2019-05-22T06:23:07.835Z,292.00
2019-05-22T06:24:07.847Z,296.00
2019-05-22T06:25:07.899Z,292.00
2019-05-22T06:26:07.797Z,272.00
2019-05-22T06:27:07.783Z,244.00
2019-05-22T06:28:07.776Z,212.00
2019-05-22T06:29:07.763Z,208.00
2019-05-22T06:30:07.760Z,184.00
2019-05-22T06:31:07.742Z,180.00
2019-05-22T06:32:07.769Z,184.00
2019-05-22T06:33:07.724Z,272.00
2019-05-22T06:34:07.715Z,240.00
2019-05-22T06:35:07.710Z,340.00
2019-05-22T06:36:07.689Z,268.00
2019-05-22T06:37:07.678Z,196.00
2019-05-22T06:38:07.706Z,164.00
2019-05-22T06:39:07.663Z,152.00
2019-05-22T06:40:07.655Z,144.00
2019-05-22T06:41:07.636Z,128.00
2019-05-22T06:42:07.624Z,136.00
2019-05-22T06:43:07.614Z,156.00
2019-05-22T06:44:07.607Z,192.00
2019-05-22T06:45:07.713Z,212.00
2019-05-22T06:46:07.584Z,236.00
2019-05-22T06:47:07.599Z,252.00
2019-05-22T06:48:07.563Z,248.00
2019-05-22T06:49:07.583Z,292.00
2019-05-22T06:50:07.568Z,296.00
2019-05-22T06:51:19.025Z,320.00
2019-05-22T06:52:08.568Z,312.00
2019-05-22T06:53:10.142Z,348.00
2019-05-22T06:54:07.504Z,396.00
2019-05-22T06:55:07.503Z,412.00
2019-05-22T06:56:07.478Z,408.00
2019-05-22T06:57:07.466Z,416.00
2019-05-22T06:58:07.454Z,456.00
2019-05-22T06:59:07.446Z,428.00
2019-05-22T07:00:14.086Z,480.00
2019-05-22T07:01:08.424Z,400.00
2019-05-22T07:02:07.417Z,376.00
2019-05-22T07:03:07.398Z,408.00
2019-05-22T07:04:07.390Z,416.00
2019-05-22T07:05:07.388Z,472.00
2019-05-22T07:06:07.367Z,460.00
2019-05-22T07:07:11.553Z,428.00
2019-05-22T07:08:07.348Z,432.00
2019-05-22T07:09:07.332Z,404.00
2019-05-22T07:10:07.361Z,368.00
2019-05-22T07:11:07.325Z,340.00
2019-05-22T07:12:07.300Z,368.00
2019-05-22T07:13:07.289Z,336.00
2019-05-22T07:14:07.280Z,292.00
2019-05-22T07:15:07.274Z,348.00
2019-05-22T07:16:07.272Z,360.00
2019-05-22T07:17:07.248Z,332.00
2019-05-22T07:18:07.250Z,344.00
2019-05-22T07:19:07.227Z,328.00
2019-05-22T07:20:07.222Z,360.00
2019-05-22T07:21:07.219Z,356.00
2019-05-22T07:22:07.207Z,348.00
2019-05-22T07:23:07.184Z,400.00
2019-05-22T07:24:07.176Z,404.00
2019-05-22T07:25:07.162Z,388.00
2019-05-22T07:26:07.169Z,452.00
2019-05-22T07:27:07.145Z,504.00
2019-05-22T07:28:07.151Z,520.00
2019-05-22T07:29:07.125Z,524.00
2019-05-22T07:30:07.220Z,540.00
2019-05-22T07:31:07.110Z,536.00
2019-05-22T07:32:07.101Z,560.00
2019-05-22T07:33:07.079Z,616.00
2019-05-22T07:34:07.067Z,636.00
2019-05-22T07:35:07.054Z,568.00
2019-05-22T07:36:10.935Z,512.00
2019-05-22T07:37:08.031Z,580.00
2019-05-22T07:38:07.028Z,580.00
2019-05-22T07:39:07.023Z,616.00
2019-05-22T07:40:07.007Z,588.00
2019-05-22T07:41:07.010Z,656.00
2019-05-22T07:42:06.984Z,676.00
2019-05-22T07:43:06.981Z,788.00
2019-05-22T07:44:06.978Z,656.00
2019-05-22T07:45:06.946Z,660.00
2019-05-22T07:46:06.953Z,604.00
2019-05-22T07:47:06.926Z,628.00
2019-05-22T07:48:07.320Z,600.00
2019-05-22T07:49:06.905Z,552.00
2019-05-22T07:50:06.981Z,556.00
2019-05-22T07:51:06.894Z,552.00
2019-05-22T07:52:06.872Z,620.00
2019-05-22T07:53:06.861Z,664.00
2019-05-22T07:54:06.854Z,688.00
2019-05-22T07:55:06.846Z,624.00
2019-05-22T07:56:06.846Z,496.00
2019-05-22T07:57:06.818Z,532.00
2019-05-22T07:58:06.808Z,476.00
2019-05-22T07:59:06.796Z,472.00
2019-05-22T08:00:06.785Z,464.00
2019-05-22T08:01:06.819Z,524.00
2019-05-22T08:02:06.764Z,548.00
2019-05-22T08:03:06.755Z,584.00
2019-05-22T08:04:06.743Z,532.00
2019-05-22T08:05:06.742Z,552.00
2019-05-22T08:06:06.737Z,576.00
2019-05-22T08:07:06.735Z,604.00
2019-05-22T08:08:06.703Z,544.00
2019-05-22T08:09:06.724Z,600.00
2019-05-22T08:10:06.680Z,624.00
2019-05-22T08:11:06.682Z,640.00
2019-05-22T08:12:06.657Z,612.00
2019-05-22T08:13:06.658Z,616.00
2019-05-22T08:14:06.634Z,664.00
2019-05-22T08:15:06.628Z,624.00
2019-05-22T08:16:06.624Z,596.00
2019-05-22T08:17:06.609Z,612.00
2019-05-22T08:18:06.595Z,676.00
2019-05-22T08:19:06.585Z,568.00
2019-05-22T08:20:06.574Z,744.00
2019-05-22T08:21:06.816Z,712.00
2019-05-22T08:22:07.793Z,664.00
2019-05-22T08:23:06.541Z,636.00
2019-05-22T08:24:06.538Z,648.00
2019-05-22T08:25:06.515Z,700.00
2019-05-22T08:26:06.509Z,588.00
2019-05-22T08:27:06.563Z,524.00
2019-05-22T08:28:06.490Z,472.00
2019-05-22T08:29:06.485Z,532.00
2019-05-22T08:30:06.462Z,508.00
2019-05-22T08:31:06.456Z,508.00
2019-05-22T08:32:06.451Z,520.00
2019-05-22T08:33:06.434Z,552.00
2019-05-22T08:34:06.420Z,612.00
2019-05-22T08:35:06.408Z,536.00
2019-05-22T08:36:06.397Z,640.00
2019-05-22T08:37:06.397Z,616.00
2019-05-22T08:38:06.383Z,632.00
2019-05-22T08:39:06.364Z,660.00
2019-05-22T08:40:06.357Z,620.00
2019-05-22T08:41:06.346Z,600.00
2019-05-22T08:42:06.345Z,696.00
2019-05-22T08:43:06.323Z,604.00
2019-05-22T08:44:16.151Z,728.00
2019-05-22T08:45:07.299Z,660.00
2019-05-22T08:46:06.293Z,704.00
2019-05-22T08:47:06.289Z,728.00
2019-05-22T08:48:06.290Z,692.00
2019-05-22T08:49:06.258Z,712.00
2019-05-22T08:50:06.249Z,700.00
2019-05-22T08:51:06.236Z,812.00
2019-05-22T08:52:06.241Z,732.00
2019-05-22T08:53:06.214Z,680.00
2019-05-22T08:54:06.307Z,720.00
2019-05-22T08:55:06.192Z,676.00
2019-05-22T08:56:06.186Z,760.00
2019-05-22T08:57:06.181Z,764.00
2019-05-22T08:58:06.188Z,756.00
2019-05-22T08:59:18.775Z,776.00
2019-05-22T09:00:07.144Z,796.00
2019-05-22T09:01:06.129Z,832.00
2019-05-22T09:02:06.129Z,920.00
2019-05-22T09:03:06.106Z,844.00
2019-05-22T09:04:06.109Z,880.00
2019-05-22T09:05:06.088Z,776.00
2019-05-22T09:06:06.088Z,820.00
2019-05-22T09:07:06.116Z,852.00
2019-05-22T09:08:06.053Z,868.00
2019-05-22T09:09:06.043Z,828.00
2019-05-22T09:10:06.034Z,804.00
2019-05-22T09:11:06.023Z,832.00
2019-05-22T09:12:06.019Z,860.00
2019-05-22T09:13:06.010Z,820.00
2019-05-22T09:14:05.997Z,864.00
2019-05-22T09:15:05.977Z,820.00
2019-05-22T09:16:05.970Z,804.00
2019-05-22T09:17:05.957Z,912.00
2019-05-22T09:18:05.974Z,992.00
2019-05-22T09:19:05.940Z,912.00
2019-05-22T09:20:05.946Z,852.00
2019-05-22T09:21:05.944Z,940.00
2019-05-22T09:22:05.912Z,864.00
2019-05-22T09:23:05.902Z,956.00
2019-05-22T09:24:05.883Z,984.00
2019-05-22T09:25:06.043Z,920.00
2019-05-22T09:26:05.863Z,1032.00
2019-05-22T09:27:05.854Z,896.00
2019-05-22T09:28:05.848Z,884.00
2019-05-22T09:29:05.828Z,884.00
2019-05-22T09:30:05.818Z,948.00
2019-05-22T09:31:05.842Z,916.00
2019-05-22T09:32:06.033Z,904.00
2019-05-22T09:33:05.793Z,984.00
2019-05-22T09:34:05.774Z,984.00
2019-05-22T09:35:05.767Z,900.00
2019-05-22T09:36:06.115Z,1088.00
2019-05-22T09:37:05.741Z,836.00
2019-05-22T09:38:05.739Z,1044.00
2019-05-22T09:39:05.720Z,848.00
2019-05-22T09:40:05.710Z,776.00
2019-05-22T09:41:05.700Z,888.00
2019-05-22T09:42:05.696Z,940.00
2019-05-22T09:43:05.728Z,840.00
2019-05-22T09:44:05.667Z,828.00
2019-05-22T09:45:05.657Z,780.00
2019-05-22T09:46:05.645Z,1008.00
2019-05-22T09:47:05.631Z,840.00
2019-05-22T09:48:05.636Z,800.00
2019-05-22T09:49:05.615Z,860.00
2019-05-22T09:50:05.603Z,828.00
2019-05-22T09:51:05.590Z,836.00
2019-05-22T09:52:05.591Z,824.00
2019-05-22T09:53:05.602Z,820.00
2019-05-22T09:54:05.562Z,772.00
2019-05-22T09:55:05.549Z,812.00
2019-05-22T09:56:05.541Z,908.00
2019-05-22T09:57:05.529Z,936.00
2019-05-22T09:58:05.520Z,1064.00
2019-05-22T09:59:05.519Z,1004.00
2019-05-22T10:00:05.498Z,940.00
2019-05-22T10:01:05.484Z,872.00
2019-05-22T10:02:05.484Z,916.00
2019-05-22T10:03:05.473Z,980.00
2019-05-22T10:04:05.465Z,912.00
2019-05-22T10:05:05.442Z,892.00
2019-05-22T10:06:05.554Z,936.00
2019-05-22T10:07:05.419Z,868.00
2019-05-22T10:08:05.420Z,852.00
2019-05-22T10:09:05.405Z,864.00
2019-05-22T10:10:05.388Z,908.00
2019-05-22T10:11:05.372Z,896.00
2019-05-22T10:12:05.361Z,892.00
2019-05-22T10:13:05.363Z,1000.00
2019-05-22T10:14:05.358Z,992.00
2019-05-22T10:15:05.333Z,920.00
2019-05-22T10:16:05.318Z,868.00
2019-05-22T10:17:05.309Z,892.00
2019-05-22T10:18:05.303Z,828.00
2019-05-22T10:19:05.312Z,832.00
2019-05-22T10:20:05.277Z,796.00
2019-05-22T10:21:05.410Z,816.00
2019-05-22T10:22:05.255Z,796.00
2019-05-22T10:23:15.070Z,748.00
2019-05-22T10:24:06.241Z,792.00
2019-05-22T10:25:15.879Z,812.00
2019-05-22T10:26:06.213Z,732.00
2019-05-22T10:27:05.199Z,764.00
2019-05-22T10:28:05.194Z,708.00
2019-05-22T10:29:05.187Z,720.00
2019-05-22T10:30:05.183Z,740.00
2019-05-22T10:31:05.161Z,716.00
2019-05-22T10:32:05.146Z,708.00
2019-05-22T10:33:05.142Z,632.00
2019-05-22T10:34:05.139Z,696.00
2019-05-22T10:35:05.118Z,660.00
2019-05-22T10:36:05.104Z,552.00
2019-05-22T10:37:05.094Z,544.00
2019-05-22T10:38:05.081Z,664.00
2019-05-22T10:39:05.115Z,480.00
2019-05-22T10:40:05.059Z,488.00
2019-05-22T10:41:05.050Z,496.00
2019-05-22T10:42:05.038Z,472.00
2019-05-22T10:43:05.207Z,492.00
2019-05-22T10:44:05.028Z,496.00
2019-05-22T10:45:05.008Z,568.00
2019-05-22T10:46:05.014Z,512.00
2019-05-22T10:47:04.985Z,520.00
2019-05-22T10:48:04.973Z,544.00
2019-05-22T10:49:04.976Z,512.00
2019-05-22T10:50:04.952Z,468.00
2019-05-22T10:51:04.958Z,524.00
2019-05-22T10:52:04.934Z,544.00
2019-05-22T10:53:04.921Z,524.00
2019-05-22T10:54:04.919Z,464.00
2019-05-22T10:55:04.900Z,496.00
2019-05-22T10:56:04.894Z,516.00
2019-05-22T10:57:04.880Z,520.00
2019-05-22T10:58:04.890Z,624.00
2019-05-22T10:59:04.866Z,688.00
2019-05-22T11:00:04.848Z,624.00
2019-05-22T11:01:04.838Z,644.00
2019-05-22T11:02:04.824Z,808.00
2019-05-22T11:03:04.853Z,772.00
2019-05-22T11:04:04.813Z,748.00
2019-05-22T11:05:04.798Z,712.00
2019-05-22T11:06:07.590Z,700.00
2019-05-22T11:07:04.777Z,708.00
2019-05-22T11:08:04.781Z,704.00
2019-05-22T11:09:04.761Z,764.00
2019-05-22T11:10:04.739Z,768.00
2019-05-22T11:11:04.743Z,844.00
2019-05-22T11:12:04.716Z,872.00
2019-05-22T11:13:04.712Z,904.00
2019-05-22T11:14:04.702Z,880.00
2019-05-22T11:15:04.684Z,832.00
2019-05-22T11:16:04.681Z,836.00
2019-05-22T11:17:04.668Z,820.00
2019-05-22T11:18:04.652Z,932.00
2019-05-22T11:19:04.667Z,784.00
2019-05-22T11:20:04.627Z,684.00
2019-05-22T11:21:04.620Z,632.00
2019-05-22T11:22:04.623Z,624.00
2019-05-22T11:23:05.038Z,660.00
2019-05-22T11:24:04.601Z,640.00
2019-05-22T11:25:04.576Z,704.00
2019-05-22T11:26:04.564Z,736.00
2019-05-22T11:27:04.554Z,736.00
2019-05-22T11:28:04.546Z,796.00
2019-05-22T11:29:04.571Z,768.00
2019-05-22T11:30:04.529Z,736.00
2019-05-22T11:31:04.549Z,756.00
2019-05-22T11:32:04.505Z,676.00
2019-05-22T11:33:04.496Z,692.00
2019-05-22T11:34:04.481Z,760.00
2019-05-22T11:35:04.481Z,764.00
2019-05-22T11:36:04.499Z,704.00
2019-05-22T11:37:04.447Z,768.00
2019-05-22T11:38:04.434Z,732.00
2019-05-22T11:39:04.427Z,664.00
2019-05-22T11:40:04.429Z,704.00
2019-05-22T11:41:04.402Z,648.00
2019-05-22T11:42:04.409Z,608.00
2019-05-22T11:43:04.383Z,596.00
2019-05-22T11:44:04.370Z,556.00
2019-05-22T11:45:04.373Z,608.00
2019-05-22T11:46:04.551Z,540.00
2019-05-22T11:47:04.411Z,536.00
2019-05-22T11:48:04.348Z,552.00
2019-05-22T11:49:04.316Z,572.00
2019-05-22T11:50:04.325Z,616.00
2019-05-22T11:51:04.298Z,764.00
2019-05-22T11:52:04.287Z,532.00
2019-05-22T11:53:04.276Z,456.00
2019-05-22T11:54:09.111Z,480.00
2019-05-22T11:55:05.273Z,604.00
2019-05-22T11:56:04.242Z,568.00
2019-05-22T11:57:04.239Z,560.00
2019-05-22T11:58:04.224Z,572.00
2019-05-22T11:59:04.211Z,524.00
2019-05-22T12:00:04.210Z,540.00
2019-05-22T12:01:04.190Z,528.00
2019-05-22T12:02:04.178Z,432.00
2019-05-22T12:03:04.169Z,456.00
2019-05-22T12:04:04.189Z,680.00
2019-05-22T12:05:04.187Z,412.00
2019-05-22T12:06:04.137Z,424.00
2019-05-22T12:07:05.971Z,476.00
2019-05-22T12:08:04.124Z,400.00
2019-05-22T12:09:04.941Z,420.00
2019-05-22T12:10:04.884Z,384.00
2019-05-22T12:11:04.095Z,392.00
2019-05-22T12:12:04.075Z,392.00
2019-05-22T12:13:04.063Z,388.00
2019-05-22T12:14:04.059Z,396.00
2019-05-22T12:15:04.050Z,388.00
2019-05-22T12:16:04.037Z,404.00
2019-05-22T12:17:04.037Z,384.00
2019-05-22T12:18:04.004Z,368.00
2019-05-22T12:19:03.995Z,364.00
2019-05-22T12:20:03.999Z,352.00
2019-05-22T12:21:04.008Z,356.00
2019-05-22T12:22:03.964Z,380.00
2019-05-22T12:23:03.952Z,352.00
2019-05-22T12:24:03.943Z,368.00
2019-05-22T12:25:03.942Z,364.00
2019-05-22T12:26:03.928Z,372.00
2019-05-22T12:27:03.921Z,408.00
2019-05-22T12:28:03.907Z,384.00
2019-05-22T12:29:03.887Z,396.00
2019-05-22T12:30:03.886Z,400.00
2019-05-22T12:31:03.867Z,448.00
2019-05-22T12:32:03.855Z,432.00
2019-05-22T12:33:11.932Z,388.00
2019-05-22T12:34:04.833Z,468.00
2019-05-22T12:35:03.845Z,388.00
2019-05-22T12:36:03.810Z,392.00
2019-05-22T12:37:03.804Z,404.00
2019-05-22T12:38:03.800Z,380.00
2019-05-22T12:39:03.789Z,376.00
2019-05-22T12:40:03.781Z,376.00
2019-05-22T12:41:03.759Z,388.00
2019-05-22T12:42:03.750Z,392.00
2019-05-22T12:43:03.740Z,404.00
2019-05-22T12:44:03.820Z,432.00